sensor_id;sensor_type;location;lat;lon;timestamp;pressure;altitude;pressure_sealevel;temperature;humidity
16481;BME280;44634;54.110;12.138;2023-05-19T00:02:20;102663.16;;;10.86;100.00
16481;BME280;44634;54.110;12.138;2023-05-19T00:04:48;102670.88;;;10.45;100.00
16481;BME280;44634;54.110;12.138;2023-05-19T00:07:17;102672.03;;;10.55;100.00
16481;BME280;44634;54.110;12.138;2023-05-19T00:09:46;102655.41;;;10.53;100.00
16481;BME280;44634;54.110;12.138;2023-05-19T00:12:14;102652.28;;;10.46;100.00
16481;BME280;44634;54.110;12.138;2023-05-19T00:14:44;102678.94;;;10.87;100.00
16481;BME280;44634;54.110;12.138;2023-05-19T00:17:12;102677.22;;;10.72;100.00
16481;BME280;44634;54.110;12.138;2023-05-19T00:19:42;102672.16;;;10.67;100.00
16481;BME280;44634;54.110;12.138;2023-05-19T00:22:10;102666.09;;;10.51;100.00
16481;BME280;44634;54.110;12.138;2023-05-19T00:24:38;102667.53;;;10.57;100.00
16481;BME280;44634;54.110;12.138;2023-05-19T00:27:06;102664.69;;;10.60;100.00
16481;BME280;44634;54.110;12.138;2023-05-19T00:29:34;102660.31;;;10.45;100.00
16481;BME280;44634;54.110;12.138;2023-05-19T00:32:03;102665.31;;;10.79;100.00
16481;BME280;44634;54.110;12.138;2023-05-19T00:34:31;102696.13;;;10.94;100.00
16481;BME280;44634;54.110;12.138;2023-05-19T00:36:59;102699.63;;;10.95;100.00
16481;BME280;44634;54.110;12.138;2023-05-19T00:39:27;102700.13;;;10.57;100.00
16481;BME280;44634;54.110;12.138;2023-05-19T00:41:55;102683.91;;;10.78;100.00
16481;BME280;44634;54.110;12.138;2023-05-19T00:44:22;102673.88;;;10.38;100.00
16481;BME280;44634;54.110;12.138;2023-05-19T00:46:50;102651.72;;;10.09;100.00
16481;BME280;44634;54.110;12.138;2023-05-19T00:49:19;102636.06;;;10.66;100.00
16481;BME280;44634;54.110;12.138;2023-05-19T00:51:47;102649.16;;;10.54;100.00
16481;BME280;44634;54.110;12.138;2023-05-19T00:54:16;102637.56;;;10.26;100.00
16481;BME280;44634;54.110;12.138;2023-05-19T00:56:44;102641.94;;;10.57;100.00
16481;BME280;44634;54.110;12.138;2023-05-19T00:59:11;102641.38;;;10.21;100.00
16481;BME280;44634;54.110;12.138;2023-05-19T01:01:39;102632.78;;;10.17;100.00
16481;BME280;44634;54.110;12.138;2023-05-19T01:04:07;102621.97;;;10.06;100.00
16481;BME280;44634;54.110;12.138;2023-05-19T01:06:38;102622.78;;;10.38;100.00
16481;BME280;44634;54.110;12.138;2023-05-19T01:09:06;102640.28;;;10.09;100.00
16481;BME280;44634;54.110;12.138;2023-05-19T01:11:34;102619.06;;;10.10;100.00
16481;BME280;44634;54.110;12.138;2023-05-19T01:14:02;102648.34;;;9.92;100.00
16481;BME280;44634;54.110;12.138;2023-05-19T01:16:33;102637.22;;;10.32;100.00
16481;BME280;44634;54.110;12.138;2023-05-19T01:19:13;102633.13;;;10.11;100.00
16481;BME280;44634;54.110;12.138;2023-05-19T01:22:24;102638.88;;;10.03;100.00
16481;BME280;44634;54.110;12.138;2023-05-19T01:28:21;102616.06;;;10.17;100.00
16481;BME280;44634;54.110;12.138;2023-05-19T01:30:55;102642.78;;;10.28;100.00
16481;BME280;44634;54.110;12.138;2023-05-19T01:33:25;102645.25;;;10.31;100.00
16481;BME280;44634;54.110;12.138;2023-05-19T01:35:55;102665.38;;;10.18;100.00
16481;BME280;44634;54.110;12.138;2023-05-19T01:38:25;102656.91;;;10.11;100.00
16481;BME280;44634;54.110;12.138;2023-05-19T01:40:55;102639.44;;;10.08;100.00
16481;BME280;44634;54.110;12.138;2023-05-19T01:43:25;102632.22;;;9.80;100.00
16481;BME280;44634;54.110;12.138;2023-05-19T01:45:55;102634.91;;;10.26;100.00
16481;BME280;44634;54.110;12.138;2023-05-19T01:48:25;102664.38;;;9.89;100.00
16481;BME280;44634;54.110;12.138;2023-05-19T01:50:53;102656.25;;;9.44;100.00
16481;BME280;44634;54.110;12.138;2023-05-19T01:53:23;102637.63;;;9.14;100.00
16481;BME280;44634;54.110;12.138;2023-05-19T01:55:55;102625.47;;;8.94;100.00
16481;BME280;44634;54.110;12.138;2023-05-19T01:58:30;102603.75;;;8.89;100.00
16481;BME280;44634;54.110;12.138;2023-05-19T02:01:09;102599.72;;;8.82;100.00
16481;BME280;44634;54.110;12.138;2023-05-19T02:03:48;102615.88;;;8.76;100.00
16481;BME280;44634;54.110;12.138;2023-05-19T02:06:29;102590.31;;;8.61;100.00
16481;BME280;44634;54.110;12.138;2023-05-19T02:09:02;102605.38;;;8.92;100.00
16481;BME280;44634;54.110;12.138;2023-05-19T02:11:35;102614.78;;;8.80;100.00
16481;BME280;44634;54.110;12.138;2023-05-19T02:14:08;102629.03;;;8.93;100.00
16481;BME280;44634;54.110;12.138;2023-05-19T02:16:44;102626.75;;;8.87;100.00
16481;BME280;44634;54.110;12.138;2023-05-19T02:19:23;102640.56;;;9.41;100.00
16481;BME280;44634;54.110;12.138;2023-05-19T02:21:51;102647.84;;;9.20;100.00
16481;BME280;44634;54.110;12.138;2023-05-19T02:24:19;102649.78;;;8.84;100.00
16481;BME280;44634;54.110;12.138;2023-05-19T02:26:48;102654.28;;;9.48;100.00
16481;BME280;44634;54.110;12.138;2023-05-19T02:29:17;102686.66;;;9.51;100.00
16481;BME280;44634;54.110;12.138;2023-05-19T02:31:46;102686.56;;;8.87;100.00
16481;BME280;44634;54.110;12.138;2023-05-19T02:34:14;102649.72;;;8.68;100.00
16481;BME280;44634;54.110;12.138;2023-05-19T02:36:42;102635.41;;;8.89;100.00
16481;BME280;44634;54.110;12.138;2023-05-19T02:39:10;102647.44;;;8.78;100.00
16481;BME280;44634;54.110;12.138;2023-05-19T02:41:38;102654.31;;;9.15;100.00
16481;BME280;44634;54.110;12.138;2023-05-19T02:44:06;102694.41;;;9.21;100.00
16481;BME280;44634;54.110;12.138;2023-05-19T02:46:34;102693.13;;;8.95;100.00
16481;BME280;44634;54.110;12.138;2023-05-19T02:49:03;102688.25;;;9.54;100.00
16481;BME280;44634;54.110;12.138;2023-05-19T02:51:31;102715.00;;;9.48;100.00
16481;BME280;44634;54.110;12.138;2023-05-19T02:53:59;102702.38;;;8.70;100.00
16481;BME280;44634;54.110;12.138;2023-05-19T02:56:26;102669.34;;;8.97;100.00
16481;BME280;44634;54.110;12.138;2023-05-19T02:58:54;102684.50;;;9.09;100.00
16481;BME280;44634;54.110;12.138;2023-05-19T03:01:23;102697.56;;;8.95;100.00
16481;BME280;44634;54.110;12.138;2023-05-19T03:03:51;102693.97;;;9.13;100.00
16481;BME280;44634;54.110;12.138;2023-05-19T03:06:21;102701.44;;;8.88;100.00
16481;BME280;44634;54.110;12.138;2023-05-19T03:08:49;102709.44;;;8.86;100.00
16481;BME280;44634;54.110;12.138;2023-05-19T03:11:17;102694.38;;;8.88;100.00
16481;BME280;44634;54.110;12.138;2023-05-19T03:13:45;102719.22;;;9.02;100.00
16481;BME280;44634;54.110;12.138;2023-05-19T03:16:13;102706.88;;;8.85;100.00
16481;BME280;44634;54.110;12.138;2023-05-19T03:18:41;102696.69;;;8.43;100.00
16481;BME280;44634;54.110;12.138;2023-05-19T03:21:09;102673.84;;;8.60;100.00
16481;BME280;44634;54.110;12.138;2023-05-19T03:23:38;102691.34;;;8.61;100.00
16481;BME280;44634;54.110;12.138;2023-05-19T03:26:06;102692.13;;;8.98;100.00
16481;BME280;44634;54.110;12.138;2023-05-19T03:28:34;102675.06;;;8.53;100.00
16481;BME280;44634;54.110;12.138;2023-05-19T03:31:02;102626.91;;;8.84;100.00
16481;BME280;44634;54.110;12.138;2023-05-19T03:33:30;102640.09;;;8.84;100.00
16481;BME280;44634;54.110;12.138;2023-05-19T03:35:57;102629.38;;;8.87;100.00
16481;BME280;44634;54.110;12.138;2023-05-19T03:38:25;102595.47;;;8.80;100.00
16481;BME280;44634;54.110;12.138;2023-05-19T03:40:54;102584.16;;;8.78;100.00
16481;BME280;44634;54.110;12.138;2023-05-19T03:43:22;102569.47;;;8.89;100.00
16481;BME280;44634;54.110;12.138;2023-05-19T03:45:50;102549.75;;;8.63;100.00
16481;BME280;44634;54.110;12.138;2023-05-19T03:48:19;102540.94;;;8.80;100.00
16481;BME280;44634;54.110;12.138;2023-05-19T03:50:46;102546.50;;;8.91;100.00
16481;BME280;44634;54.110;12.138;2023-05-19T03:53:15;102524.88;;;8.85;100.00
16481;BME280;44634;54.110;12.138;2023-05-19T03:55:43;102526.41;;;8.89;100.00
16481;BME280;44634;54.110;12.138;2023-05-19T03:58:13;102542.72;;;9.44;100.00
16481;BME280;44634;54.110;12.138;2023-05-19T04:00:41;102570.53;;;8.70;100.00
16481;BME280;44634;54.110;12.138;2023-05-19T04:03:09;102574.34;;;8.47;100.00
16481;BME280;44634;54.110;12.138;2023-05-19T04:05:37;102578.06;;;8.60;100.00
16481;BME280;44634;54.110;12.138;2023-05-19T04:08:05;102594.09;;;8.73;100.00
16481;BME280;44634;54.110;12.138;2023-05-19T04:10:33;102604.00;;;8.85;100.00
16481;BME280;44634;54.110;12.138;2023-05-19T04:13:00;102604.16;;;9.15;100.00
16481;BME280;44634;54.110;12.138;2023-05-19T04:15:29;102497.00;;;10.04;100.00
16481;BME280;44634;54.110;12.138;2023-05-19T04:17:57;102514.94;;;9.99;100.00
16481;BME280;44634;54.110;12.138;2023-05-19T04:20:25;102585.53;;;9.65;100.00
16481;BME280;44634;54.110;12.138;2023-05-19T04:22:53;102617.66;;;9.73;100.00
16481;BME280;44634;54.110;12.138;2023-05-19T04:25:21;102612.72;;;9.67;100.00
16481;BME280;44634;54.110;12.138;2023-05-19T04:27:50;102655.50;;;9.58;100.00
16481;BME280;44634;54.110;12.138;2023-05-19T04:30:18;102667.50;;;9.79;100.00
16481;BME280;44634;54.110;12.138;2023-05-19T04:32:49;102673.66;;;10.27;100.00
16481;BME280;44634;54.110;12.138;2023-05-19T04:35:19;102633.91;;;10.59;100.00
16481;BME280;44634;54.110;12.138;2023-05-19T04:37:48;102653.38;;;10.28;100.00
16481;BME280;44634;54.110;12.138;2023-05-19T04:40:15;102608.78;;;10.80;100.00
16481;BME280;44634;54.110;12.138;2023-05-19T04:42:43;102633.19;;;10.85;100.00
16481;BME280;44634;54.110;12.138;2023-05-19T04:45:11;102623.69;;;10.67;100.00
16481;BME280;44634;54.110;12.138;2023-05-19T04:47:40;102594.38;;;11.00;100.00
16481;BME280;44634;54.110;12.138;2023-05-19T04:50:10;102596.91;;;11.16;100.00
16481;BME280;44634;54.110;12.138;2023-05-19T04:52:38;102599.16;;;11.08;100.00
16481;BME280;44634;54.110;12.138;2023-05-19T04:55:07;102616.38;;;11.43;100.00
16481;BME280;44634;54.110;12.138;2023-05-19T04:57:36;102624.69;;;11.37;100.00
16481;BME280;44634;54.110;12.138;2023-05-19T05:00:05;102630.25;;;12.02;100.00
16481;BME280;44634;54.110;12.138;2023-05-19T05:02:37;102645.94;;;11.64;100.00
16481;BME280;44634;54.110;12.138;2023-05-19T05:05:06;102615.53;;;11.28;100.00
16481;BME280;44634;54.110;12.138;2023-05-19T05:07:36;102610.06;;;11.73;100.00
16481;BME280;44634;54.110;12.138;2023-05-19T05:10:05;102644.31;;;11.76;100.00
16481;BME280;44634;54.110;12.138;2023-05-19T05:12:34;102641.75;;;12.15;100.00
16481;BME280;44634;54.110;12.138;2023-05-19T05:15:03;102667.06;;;12.07;100.00
16481;BME280;44634;54.110;12.138;2023-05-19T05:17:32;102675.44;;;12.40;100.00
16481;BME280;44634;54.110;12.138;2023-05-19T05:20:01;102707.59;;;12.36;100.00
16481;BME280;44634;54.110;12.138;2023-05-19T05:22:32;102712.25;;;12.32;100.00
16481;BME280;44634;54.110;12.138;2023-05-19T05:25:02;102711.66;;;12.54;100.00
16481;BME280;44634;54.110;12.138;2023-05-19T05:27:30;102718.66;;;12.55;100.00
16481;BME280;44634;54.110;12.138;2023-05-19T05:29:58;102731.03;;;12.42;100.00
16481;BME280;44634;54.110;12.138;2023-05-19T05:32:26;102740.66;;;12.57;100.00
16481;BME280;44634;54.110;12.138;2023-05-19T05:34:54;102739.22;;;12.39;100.00
16481;BME280;44634;54.110;12.138;2023-05-19T05:37:21;102731.00;;;12.29;100.00
16481;BME280;44634;54.110;12.138;2023-05-19T05:39:49;102741.53;;;12.31;100.00
16481;BME280;44634;54.110;12.138;2023-05-19T05:42:18;102746.66;;;12.86;100.00
16481;BME280;44634;54.110;12.138;2023-05-19T05:44:46;102748.38;;;12.47;100.00
16481;BME280;44634;54.110;12.138;2023-05-19T05:47:15;102745.78;;;12.60;100.00
16481;BME280;44634;54.110;12.138;2023-05-19T05:49:43;102746.69;;;12.46;100.00
16481;BME280;44634;54.110;12.138;2023-05-19T05:52:14;102737.88;;;12.46;100.00
16481;BME280;44634;54.110;12.138;2023-05-19T05:54:42;102716.97;;;12.94;100.00
16481;BME280;44634;54.110;12.138;2023-05-19T05:57:12;102706.59;;;12.64;100.00
16481;BME280;44634;54.110;12.138;2023-05-19T05:59:41;102717.81;;;13.07;100.00
16481;BME280;44634;54.110;12.138;2023-05-19T06:02:10;102733.69;;;13.34;100.00
16481;BME280;44634;54.110;12.138;2023-05-19T06:04:38;102746.53;;;13.53;100.00
16481;BME280;44634;54.110;12.138;2023-05-19T06:07:07;102735.78;;;13.67;100.00
16481;BME280;44634;54.110;12.138;2023-05-19T06:09:35;102747.84;;;13.47;100.00
16481;BME280;44634;54.110;12.138;2023-05-19T06:12:03;102765.69;;;14.20;100.00
16481;BME280;44634;54.110;12.138;2023-05-19T06:14:32;102777.69;;;14.25;100.00
16481;BME280;44634;54.110;12.138;2023-05-19T06:17:01;102763.63;;;14.23;100.00
16481;BME280;44634;54.110;12.138;2023-05-19T06:19:29;102804.06;;;14.28;100.00
16481;BME280;44634;54.110;12.138;2023-05-19T06:21:57;102788.41;;;14.37;100.00
16481;BME280;44634;54.110;12.138;2023-05-19T06:24:25;102777.13;;;14.33;100.00
16481;BME280;44634;54.110;12.138;2023-05-19T06:26:52;102793.97;;;14.81;100.00
16481;BME280;44634;54.110;12.138;2023-05-19T06:29:20;102793.28;;;14.30;100.00
16481;BME280;44634;54.110;12.138;2023-05-19T06:31:48;102779.69;;;14.58;100.00
16481;BME280;44634;54.110;12.138;2023-05-19T06:34:17;102767.72;;;14.40;100.00
16481;BME280;44634;54.110;12.138;2023-05-19T06:36:46;102794.50;;;14.63;100.00
16481;BME280;44634;54.110;12.138;2023-05-19T06:39:14;102795.91;;;14.55;100.00
16481;BME280;44634;54.110;12.138;2023-05-19T06:41:41;102798.34;;;14.82;100.00
16481;BME280;44634;54.110;12.138;2023-05-19T06:44:09;102795.78;;;14.81;100.00
16481;BME280;44634;54.110;12.138;2023-05-19T06:46:37;102777.44;;;15.00;100.00
16481;BME280;44634;54.110;12.138;2023-05-19T06:49:06;102789.63;;;15.27;100.00
16481;BME280;44634;54.110;12.138;2023-05-19T06:51:35;102785.63;;;15.21;100.00
16481;BME280;44634;54.110;12.138;2023-05-19T06:54:03;102788.09;;;15.00;100.00
16481;BME280;44634;54.110;12.138;2023-05-19T06:56:30;102782.56;;;15.14;100.00
16481;BME280;44634;54.110;12.138;2023-05-19T06:58:58;102786.81;;;15.74;100.00
16481;BME280;44634;54.110;12.138;2023-05-19T07:01:26;102796.75;;;15.15;100.00
16481;BME280;44634;54.110;12.138;2023-05-19T07:03:55;102790.84;;;15.91;100.00
16481;BME280;44634;54.110;12.138;2023-05-19T07:06:23;102803.59;;;15.41;100.00
16481;BME280;44634;54.110;12.138;2023-05-19T07:08:52;102798.22;;;16.10;100.00
16481;BME280;44634;54.110;12.138;2023-05-19T07:11:21;102810.81;;;15.86;100.00
16481;BME280;44634;54.110;12.138;2023-05-19T07:13:48;102803.28;;;15.91;100.00
16481;BME280;44634;54.110;12.138;2023-05-19T07:16:16;102801.59;;;15.90;100.00
16481;BME280;44634;54.110;12.138;2023-05-19T07:18:44;102810.13;;;15.37;100.00
16481;BME280;44634;54.110;12.138;2023-05-19T07:21:12;102810.78;;;16.19;100.00
16481;BME280;44634;54.110;12.138;2023-05-19T07:23:40;102827.28;;;16.35;100.00
16481;BME280;44634;54.110;12.138;2023-05-19T07:26:09;102828.22;;;16.57;100.00
16481;BME280;44634;54.110;12.138;2023-05-19T07:28:37;102835.19;;;16.37;100.00
16481;BME280;44634;54.110;12.138;2023-05-19T07:31:07;102841.53;;;17.32;100.00
16481;BME280;44634;54.110;12.138;2023-05-19T07:33:34;102840.59;;;17.01;100.00
16481;BME280;44634;54.110;12.138;2023-05-19T07:36:03;102839.97;;;17.09;100.00
16481;BME280;44634;54.110;12.138;2023-05-19T07:38:31;102844.25;;;17.21;100.00
16481;BME280;44634;54.110;12.138;2023-05-19T07:41:00;102845.47;;;17.70;100.00
16481;BME280;44634;54.110;12.138;2023-05-19T07:43:29;102862.56;;;18.09;100.00
16481;BME280;44634;54.110;12.138;2023-05-19T07:45:57;102848.69;;;18.34;100.00
16481;BME280;44634;54.110;12.138;2023-05-19T07:48:25;102855.81;;;17.84;100.00
16481;BME280;44634;54.110;12.138;2023-05-19T07:50:52;102850.13;;;18.38;100.00
16481;BME280;44634;54.110;12.138;2023-05-19T07:53:20;102843.03;;;17.67;100.00
16481;BME280;44634;54.110;12.138;2023-05-19T07:55:48;102845.28;;;18.23;100.00
16481;BME280;44634;54.110;12.138;2023-05-19T07:58:16;102849.72;;;18.62;100.00
16481;BME280;44634;54.110;12.138;2023-05-19T08:00:46;102849.34;;;18.17;100.00
16481;BME280;44634;54.110;12.138;2023-05-19T08:03:14;102847.78;;;18.14;100.00
16481;BME280;44634;54.110;12.138;2023-05-19T08:05:44;102847.19;;;18.61;100.00
16481;BME280;44634;54.110;12.138;2023-05-19T08:08:11;102850.81;;;18.40;100.00
16481;BME280;44634;54.110;12.138;2023-05-19T08:10:42;102843.00;;;18.78;100.00
16481;BME280;44634;54.110;12.138;2023-05-19T08:13:10;102847.47;;;18.58;100.00
16481;BME280;44634;54.110;12.138;2023-05-19T08:15:38;102848.81;;;18.83;100.00
16481;BME280;44634;54.110;12.138;2023-05-19T08:18:08;102853.66;;;18.49;100.00
16481;BME280;44634;54.110;12.138;2023-05-19T08:20:35;102849.50;;;19.04;100.00
16481;BME280;44634;54.110;12.138;2023-05-19T08:23:03;102854.88;;;19.04;100.00
16481;BME280;44634;54.110;12.138;2023-05-19T08:25:31;102845.97;;;19.32;100.00
16481;BME280;44634;54.110;12.138;2023-05-19T08:27:59;102846.41;;;19.18;97.82
16481;BME280;44634;54.110;12.138;2023-05-19T08:30:27;102843.88;;;19.17;100.00
16481;BME280;44634;54.110;12.138;2023-05-19T08:32:55;102840.16;;;19.56;96.54
16481;BME280;44634;54.110;12.138;2023-05-19T08:35:24;102840.84;;;19.68;95.42
16481;BME280;44634;54.110;12.138;2023-05-19T08:37:52;102836.06;;;19.43;92.21
16481;BME280;44634;54.110;12.138;2023-05-19T08:40:20;102842.31;;;19.14;90.69
16481;BME280;44634;54.110;12.138;2023-05-19T08:42:48;102838.06;;;19.41;89.85
16481;BME280;44634;54.110;12.138;2023-05-19T08:45:16;102848.66;;;19.32;79.06
16481;BME280;44634;54.110;12.138;2023-05-19T08:47:44;102842.72;;;19.39;84.29
16481;BME280;44634;54.110;12.138;2023-05-19T08:50:16;102841.41;;;19.72;85.04
16481;BME280;44634;54.110;12.138;2023-05-19T08:52:51;102840.78;;;19.87;80.20
16481;BME280;44634;54.110;12.138;2023-05-19T08:55:28;102829.34;;;19.85;84.32
16481;BME280;44634;54.110;12.138;2023-05-19T08:58:00;102830.31;;;19.09;89.00
16481;BME280;44634;54.110;12.138;2023-05-19T09:00:30;102827.22;;;19.79;84.66
16481;BME280;44634;54.110;12.138;2023-05-19T09:02:59;102828.00;;;19.99;83.00
16481;BME280;44634;54.110;12.138;2023-05-19T09:05:47;102822.19;;;20.31;80.61
16481;BME280;44634;54.110;12.138;2023-05-19T09:08:17;102821.69;;;20.18;76.97
16481;BME280;44634;54.110;12.138;2023-05-19T09:10:44;102822.00;;;20.42;85.53
16481;BME280;44634;54.110;12.138;2023-05-19T09:13:12;102819.31;;;20.15;83.03
16481;BME280;44634;54.110;12.138;2023-05-19T09:15:41;102813.63;;;20.45;85.33
16481;BME280;44634;54.110;12.138;2023-05-19T09:18:10;102818.75;;;20.84;81.28
16481;BME280;44634;54.110;12.138;2023-05-19T09:20:40;102811.50;;;21.02;80.69
16481;BME280;44634;54.110;12.138;2023-05-19T09:23:11;102810.28;;;20.61;83.83
16481;BME280;44634;54.110;12.138;2023-05-19T09:25:47;102815.84;;;20.23;90.36
16481;BME280;44634;54.110;12.138;2023-05-19T09:28:22;102810.72;;;20.92;83.78
16481;BME280;44634;54.110;12.138;2023-05-19T09:30:58;102799.00;;;20.58;90.50
16481;BME280;44634;54.110;12.138;2023-05-19T09:33:26;102801.75;;;20.38;91.13
16481;BME280;44634;54.110;12.138;2023-05-19T09:35:54;102799.47;;;20.71;89.31
16481;BME280;44634;54.110;12.138;2023-05-19T09:38:23;102803.47;;;21.10;88.05
16481;BME280;44634;54.110;12.138;2023-05-19T09:40:53;102795.84;;;21.24;85.18
16481;BME280;44634;54.110;12.138;2023-05-19T09:43:23;102795.28;;;21.12;88.47
16481;BME280;44634;54.110;12.138;2023-05-19T09:45:54;102800.13;;;21.86;83.31
16481;BME280;44634;54.110;12.138;2023-05-19T09:48:24;102793.69;;;21.79;84.28
16481;BME280;44634;54.110;12.138;2023-05-19T09:50:53;102799.41;;;21.84;81.22
16481;BME280;44634;54.110;12.138;2023-05-19T09:53:23;102791.25;;;22.02;80.31
16481;BME280;44634;54.110;12.138;2023-05-19T09:55:55;102796.09;;;21.30;81.65
16481;BME280;44634;54.110;12.138;2023-05-19T09:58:24;102802.31;;;21.31;83.25
16481;BME280;44634;54.110;12.138;2023-05-19T10:00:52;102795.72;;;21.07;88.01
16481;BME280;44634;54.110;12.138;2023-05-19T10:03:21;102778.25;;;21.97;84.29
16481;BME280;44634;54.110;12.138;2023-05-19T10:05:52;102787.22;;;21.64;84.00
16481;BME280;44634;54.110;12.138;2023-05-19T10:08:20;102774.25;;;22.76;78.22
16481;BME280;44634;54.110;12.138;2023-05-19T10:10:50;102763.38;;;24.05;65.96
16481;BME280;44634;54.110;12.138;2023-05-19T10:13:20;102767.66;;;22.71;75.63
16481;BME280;44634;54.110;12.138;2023-05-19T10:15:48;102764.91;;;23.52;64.13
16481;BME280;44634;54.110;12.138;2023-05-19T10:18:21;102754.66;;;24.49;57.38
16481;BME280;44634;54.110;12.138;2023-05-19T10:20:53;102769.88;;;22.83;63.96
16481;BME280;44634;54.110;12.138;2023-05-19T10:23:21;102762.31;;;23.03;67.44
16481;BME280;44634;54.110;12.138;2023-05-19T10:25:50;102757.25;;;24.11;59.43
16481;BME280;44634;54.110;12.138;2023-05-19T10:28:21;102746.69;;;23.93;57.30
16481;BME280;44634;54.110;12.138;2023-05-19T10:30:55;102746.69;;;23.62;59.91
16481;BME280;44634;54.110;12.138;2023-05-19T10:33:33;102743.66;;;25.11;52.84
16481;BME280;44634;54.110;12.138;2023-05-19T10:36:20;102748.00;;;24.37;54.07
16481;BME280;44634;54.110;12.138;2023-05-19T10:38:57;102735.47;;;25.48;49.13
16481;BME280;44634;54.110;12.138;2023-05-19T10:41:27;102741.69;;;23.82;52.48
16481;BME280;44634;54.110;12.138;2023-05-19T10:44:06;102737.97;;;24.45;51.41
16481;BME280;44634;54.110;12.138;2023-05-19T10:46:38;102741.53;;;23.20;56.56
16481;BME280;44634;54.110;12.138;2023-05-19T10:49:06;102741.03;;;23.17;55.55
16481;BME280;44634;54.110;12.138;2023-05-19T10:51:34;102756.13;;;22.12;66.40
16481;BME280;44634;54.110;12.138;2023-05-19T10:54:07;102748.47;;;22.74;58.67
16481;BME280;44634;54.110;12.138;2023-05-19T10:56:38;102725.06;;;24.01;51.80
16481;BME280;44634;54.110;12.138;2023-05-19T10:59:29;102734.06;;;24.48;51.98
16481;BME280;44634;54.110;12.138;2023-05-19T11:02:02;102734.59;;;24.43;51.40
16481;BME280;44634;54.110;12.138;2023-05-19T11:04:44;102732.91;;;23.33;52.98
16481;BME280;44634;54.110;12.138;2023-05-19T11:07:17;102748.94;;;22.69;58.21
16481;BME280;44634;54.110;12.138;2023-05-19T11:09:48;102739.50;;;22.33;56.36
16481;BME280;44634;54.110;12.138;2023-05-19T11:12:21;102744.91;;;22.81;56.67
16481;BME280;44634;54.110;12.138;2023-05-19T11:14:53;102731.13;;;23.56;55.67
16481;BME280;44634;54.110;12.138;2023-05-19T11:17:23;102745.59;;;22.75;84.49
16481;BME280;44634;54.110;12.138;2023-05-19T11:19:53;102743.72;;;22.68;91.83
16481;BME280;44634;54.110;12.138;2023-05-19T11:22:23;102735.94;;;22.24;96.84
16481;BME280;44634;54.110;12.138;2023-05-19T11:24:53;102735.72;;;21.59;100.00
16481;BME280;44634;54.110;12.138;2023-05-19T11:27:24;102726.09;;;20.61;100.00
16481;BME280;44634;54.110;12.138;2023-05-19T11:29:54;102727.38;;;20.21;100.00
16481;BME280;44634;54.110;12.138;2023-05-19T11:32:26;102723.28;;;21.32;100.00
16481;BME280;44634;54.110;12.138;2023-05-19T11:34:55;102733.31;;;21.98;100.00
16481;BME280;44634;54.110;12.138;2023-05-19T11:37:23;102732.03;;;21.68;100.00
16481;BME280;44634;54.110;12.138;2023-05-19T11:39:51;102727.69;;;23.31;93.81
16481;BME280;44634;54.110;12.138;2023-05-19T11:42:19;102730.59;;;22.73;100.00
16481;BME280;44634;54.110;12.138;2023-05-19T11:44:47;102720.50;;;22.83;99.28
16481;BME280;44634;54.110;12.138;2023-05-19T11:47:16;102713.06;;;22.28;100.00
16481;BME280;44634;54.110;12.138;2023-05-19T11:49:47;102705.47;;;22.97;100.00
16481;BME280;44634;54.110;12.138;2023-05-19T11:52:15;102717.44;;;21.79;100.00
16481;BME280;44634;54.110;12.138;2023-05-19T11:54:47;102706.69;;;22.86;100.00
16481;BME280;44634;54.110;12.138;2023-05-19T11:57:15;102705.97;;;22.35;100.00
16481;BME280;44634;54.110;12.138;2023-05-19T11:59:43;102711.03;;;21.80;100.00
16481;BME280;44634;54.110;12.138;2023-05-19T12:02:17;102713.41;;;22.33;100.00
16481;BME280;44634;54.110;12.138;2023-05-19T12:04:45;102712.22;;;22.68;99.05
16481;BME280;44634;54.110;12.138;2023-05-19T12:07:15;102707.31;;;22.80;99.80
16481;BME280;44634;54.110;12.138;2023-05-19T12:09:44;102701.59;;;23.55;97.29
16481;BME280;44634;54.110;12.138;2023-05-19T12:12:12;102701.66;;;24.17;76.98
16481;BME280;44634;54.110;12.138;2023-05-19T12:14:41;102711.50;;;22.25;97.83
16481;BME280;44634;54.110;12.138;2023-05-19T12:17:10;102711.25;;;23.41;91.47
16481;BME280;44634;54.110;12.138;2023-05-19T12:19:42;102699.78;;;24.17;80.62
16481;BME280;44634;54.110;12.138;2023-05-19T12:22:10;102706.59;;;23.27;84.41
16481;BME280;44634;54.110;12.138;2023-05-19T12:24:39;102699.53;;;24.04;79.92
16481;BME280;44634;54.110;12.138;2023-05-19T12:27:13;102697.88;;;24.49;76.13
16481;BME280;44634;54.110;12.138;2023-05-19T12:29:48;102692.38;;;24.95;71.70
16481;BME280;44634;54.110;12.138;2023-05-19T12:32:16;102690.50;;;24.80;76.22
16481;BME280;44634;54.110;12.138;2023-05-19T12:34:46;102689.47;;;24.96;75.44
16481;BME280;44634;54.110;12.138;2023-05-19T12:37:14;102697.16;;;24.32;74.97
16481;BME280;44634;54.110;12.138;2023-05-19T12:39:42;102688.31;;;24.38;76.33
16481;BME280;44634;54.110;12.138;2023-05-19T12:42:11;102693.44;;;24.33;75.94
16481;BME280;44634;54.110;12.138;2023-05-19T12:44:43;102684.50;;;24.24;78.36
16481;BME280;44634;54.110;12.138;2023-05-19T12:47:12;102678.81;;;23.57;85.19
16481;BME280;44634;54.110;12.138;2023-05-19T12:49:53;102679.78;;;23.72;87.90
16481;BME280;44634;54.110;12.138;2023-05-19T12:52:22;102683.34;;;23.57;83.09